sensor_id;sensor_type;location;lat;lon;timestamp;P1;durP1;ratioP1;P2;durP2;ratioP2
25758;SDS011;13604;52.496;13.456;2023-08-01T00:00:52;9.15;;;4.63;;
25758;SDS011;13604;52.496;13.456;2023-08-01T00:03:17;7.95;;;4.03;;
25758;SDS011;13604;52.496;13.456;2023-08-01T00:05:42;11.50;;;4.47;;
25758;SDS011;13604;52.496;13.456;2023-08-01T00:08:10;11.90;;;4.50;;
25758;SDS011;13604;52.496;13.456;2023-08-01T00:10:39;11.57;;;4.68;;
25758;SDS011;13604;52.496;13.456;2023-08-01T00:13:08;15.35;;;5.55;;
25758;SDS011;13604;52.496;13.456;2023-08-01T00:15:33;13.60;;;4.65;;
25758;SDS011;13604;52.496;13.456;2023-08-01T00:17:59;9.48;;;4.65;;
25758;SDS011;13604;52.496;13.456;2023-08-01T00:20:24;9.30;;;4.47;;
25758;SDS011;13604;52.496;13.456;2023-08-01T00:22:50;11.10;;;5.47;;
25758;SDS011;13604;52.496;13.456;2023-08-01T00:25:15;8.65;;;4.53;;
25758;SDS011;13604;52.496;13.456;2023-08-01T00:27:40;8.40;;;4.90;;
25758;SDS011;13604;52.496;13.456;2023-08-01T00:30:06;9.40;;;4.93;;
25758;SDS011;13604;52.496;13.456;2023-08-01T00:32:32;8.35;;;4.93;;
25758;SDS011;13604;52.496;13.456;2023-08-01T00:34:58;15.73;;;5.20;;
25758;SDS011;13604;52.496;13.456;2023-08-01T00:37:23;12.85;;;4.78;;
25758;SDS011;13604;52.496;13.456;2023-08-01T00:39:48;6.93;;;4.57;;
25758;SDS011;13604;52.496;13.456;2023-08-01T00:42:14;9.43;;;4.95;;
25758;SDS011;13604;52.496;13.456;2023-08-01T00:44:40;7.43;;;4.20;;
25758;SDS011;13604;52.496;13.456;2023-08-01T00:47:05;11.35;;;4.60;;
25758;SDS011;13604;52.496;13.456;2023-08-01T00:49:30;10.57;;;4.10;;
25758;SDS011;13604;52.496;13.456;2023-08-01T00:51:56;7.97;;;4.35;;
25758;SDS011;13604;52.496;13.456;2023-08-01T00:54:21;8.57;;;4.03;;
25758;SDS011;13604;52.496;13.456;2023-08-01T00:56:47;7.20;;;3.97;;
25758;SDS011;13604;52.496;13.456;2023-08-01T00:59:12;6.78;;;4.47;;
25758;SDS011;13604;52.496;13.456;2023-08-01T01:01:38;6.45;;;4.00;;
25758;SDS011;13604;52.496;13.456;2023-08-01T01:04:03;8.07;;;4.60;;
25758;SDS011;13604;52.496;13.456;2023-08-01T01:06:31;6.38;;;4.00;;
25758;SDS011;13604;52.496;13.456;2023-08-01T01:08:59;9.50;;;4.68;;
25758;SDS011;13604;52.496;13.456;2023-08-01T01:11:24;6.75;;;4.20;;
25758;SDS011;13604;52.496;13.456;2023-08-01T01:13:50;5.90;;;4.25;;
25758;SDS011;13604;52.496;13.456;2023-08-01T01:16:18;11.20;;;4.78;;
25758;SDS011;13604;52.496;13.456;2023-08-01T01:18:44;6.75;;;4.35;;
25758;SDS011;13604;52.496;13.456;2023-08-01T01:21:09;11.07;;;4.80;;
25758;SDS011;13604;52.496;13.456;2023-08-01T01:23:35;11.07;;;5.10;;
25758;SDS011;13604;52.496;13.456;2023-08-01T01:26:01;9.02;;;5.22;;
25758;SDS011;13604;52.496;13.456;2023-08-01T01:28:29;7.30;;;4.90;;
25758;SDS011;13604;52.496;13.456;2023-08-01T01:30:55;13.02;;;5.43;;
25758;SDS011;13604;52.496;13.456;2023-08-01T01:33:22;8.75;;;5.07;;
25758;SDS011;13604;52.496;13.456;2023-08-01T01:35:48;6.20;;;4.78;;
25758;SDS011;13604;52.496;13.456;2023-08-01T01:38:13;11.90;;;5.75;;
25758;SDS011;13604;52.496;13.456;2023-08-01T01:40:38;10.27;;;5.10;;
25758;SDS011;13604;52.496;13.456;2023-08-01T01:43:03;11.60;;;5.43;;
25758;SDS011;13604;52.496;13.456;2023-08-01T01:45:29;11.32;;;5.55;;
25758;SDS011;13604;52.496;13.456;2023-08-01T01:47:54;11.43;;;5.65;;
25758;SDS011;13604;52.496;13.456;2023-08-01T01:50:19;11.02;;;5.82;;
25758;SDS011;13604;52.496;13.456;2023-08-01T01:52:45;11.98;;;5.88;;
25758;SDS011;13604;52.496;13.456;2023-08-01T01:55:11;12.80;;;5.90;;
25758;SDS011;13604;52.496;13.456;2023-08-01T01:57:36;13.75;;;5.78;;
25758;SDS011;13604;52.496;13.456;2023-08-01T02:00:02;9.63;;;5.93;;
25758;SDS011;13604;52.496;13.456;2023-08-01T02:02:28;11.15;;;5.85;;
25758;SDS011;13604;52.496;13.456;2023-08-01T02:04:54;11.43;;;6.35;;
25758;SDS011;13604;52.496;13.456;2023-08-01T02:07:19;10.70;;;6.20;;
25758;SDS011;13604;52.496;13.456;2023-08-01T02:09:44;9.93;;;6.18;;
25758;SDS011;13604;52.496;13.456;2023-08-01T02:12:11;11.45;;;6.30;;
25758;SDS011;13604;52.496;13.456;2023-08-01T02:14:38;11.85;;;6.40;;
25758;SDS011;13604;52.496;13.456;2023-08-01T02:17:04;10.82;;;5.60;;
25758;SDS011;13604;52.496;13.456;2023-08-01T02:19:29;12.32;;;6.43;;
25758;SDS011;13604;52.496;13.456;2023-08-01T02:21:55;15.68;;;6.68;;
25758;SDS011;13604;52.496;13.456;2023-08-01T02:24:20;9.82;;;5.72;;
25758;SDS011;13604;52.496;13.456;2023-08-01T02:26:45;10.13;;;5.90;;
25758;SDS011;13604;52.496;13.456;2023-08-01T02:29:10;13.93;;;7.25;;
25758;SDS011;13604;52.496;13.456;2023-08-01T02:31:36;13.02;;;7.00;;
25758;SDS011;13604;52.496;13.456;2023-08-01T02:34:01;17.33;;;6.80;;
25758;SDS011;13604;52.496;13.456;2023-08-01T02:36:26;12.95;;;7.40;;
25758;SDS011;13604;52.496;13.456;2023-08-01T02:38:52;13.25;;;7.15;;
25758;SDS011;13604;52.496;13.456;2023-08-01T02:41:17;12.98;;;6.93;;
25758;SDS011;13604;52.496;13.456;2023-08-01T02:43:42;13.02;;;6.88;;
25758;SDS011;13604;52.496;13.456;2023-08-01T02:46:07;13.68;;;6.55;;
25758;SDS011;13604;52.496;13.456;2023-08-01T02:48:33;10.30;;;6.55;;
25758;SDS011;13604;52.496;13.456;2023-08-01T02:51:00;14.32;;;6.00;;
25758;SDS011;13604;52.496;13.456;2023-08-01T02:53:25;9.88;;;6.63;;
25758;SDS011;13604;52.496;13.456;2023-08-01T02:55:50;11.55;;;6.32;;
25758;SDS011;13604;52.496;13.456;2023-08-01T02:58:16;9.60;;;6.20;;
25758;SDS011;13604;52.496;13.456;2023-08-01T03:00:41;13.90;;;6.50;;
25758;SDS011;13604;52.496;13.456;2023-08-01T03:03:06;12.00;;;6.00;;
25758;SDS011;13604;52.496;13.456;2023-08-01T03:05:32;12.00;;;6.30;;
25758;SDS011;13604;52.496;13.456;2023-08-01T03:08:00;11.82;;;6.80;;
25758;SDS011;13604;52.496;13.456;2023-08-01T03:10:25;9.95;;;6.35;;
25758;SDS011;13604;52.496;13.456;2023-08-01T03:12:50;9.98;;;6.35;;
25758;SDS011;13604;52.496;13.456;2023-08-01T03:15:16;10.48;;;6.18;;
25758;SDS011;13604;52.496;13.456;2023-08-01T03:17:41;15.32;;;6.38;;
25758;SDS011;13604;52.496;13.456;2023-08-01T03:20:07;10.48;;;5.75;;
25758;SDS011;13604;52.496;13.456;2023-08-01T03:22:35;10.15;;;5.90;;
25758;SDS011;13604;52.496;13.456;2023-08-01T03:25:04;8.00;;;5.75;;
25758;SDS011;13604;52.496;13.456;2023-08-01T03:27:32;14.55;;;6.35;;
25758;SDS011;13604;52.496;13.456;2023-08-01T03:29:58;10.70;;;6.18;;
25758;SDS011;13604;52.496;13.456;2023-08-01T03:32:23;9.98;;;5.75;;
25758;SDS011;13604;52.496;13.456;2023-08-01T03:34:48;14.15;;;5.82;;
25758;SDS011;13604;52.496;13.456;2023-08-01T03:37:14;8.07;;;5.25;;
25758;SDS011;13604;52.496;13.456;2023-08-01T03:39:39;11.23;;;5.57;;
25758;SDS011;13604;52.496;13.456;2023-08-01T03:42:04;11.90;;;5.57;;
25758;SDS011;13604;52.496;13.456;2023-08-01T03:44:30;8.85;;;5.90;;
25758;SDS011;13604;52.496;13.456;2023-08-01T03:46:56;11.18;;;5.32;;
25758;SDS011;13604;52.496;13.456;2023-08-01T03:49:21;11.48;;;5.75;;
25758;SDS011;13604;52.496;13.456;2023-08-01T03:51:47;10.73;;;5.82;;
25758;SDS011;13604;52.496;13.456;2023-08-01T03:54:12;9.93;;;5.93;;
25758;SDS011;13604;52.496;13.456;2023-08-01T03:56:37;8.60;;;5.20;;
25758;SDS011;13604;52.496;13.456;2023-08-01T03:59:04;8.13;;;5.40;;
25758;SDS011;13604;52.496;13.456;2023-08-01T04:01:30;11.88;;;6.18;;
25758;SDS011;13604;52.496;13.456;2023-08-01T04:03:55;9.88;;;5.53;;
25758;SDS011;13604;52.496;13.456;2023-08-01T04:06:20;12.15;;;5.43;;
25758;SDS011;13604;52.496;13.456;2023-08-01T04:08:45;9.48;;;5.50;;
25758;SDS011;13604;52.496;13.456;2023-08-01T04:11:11;12.55;;;5.50;;
25758;SDS011;13604;52.496;13.456;2023-08-01T04:13:36;7.25;;;4.47;;
25758;SDS011;13604;52.496;13.456;2023-08-01T04:16:01;6.82;;;4.85;;
25758;SDS011;13604;52.496;13.456;2023-08-01T04:18:27;6.85;;;5.13;;
25758;SDS011;13604;52.496;13.456;2023-08-01T04:20:52;9.68;;;5.38;;
25758;SDS011;13604;52.496;13.456;2023-08-01T04:23:17;11.60;;;5.10;;
25758;SDS011;13604;52.496;13.456;2023-08-01T04:25:43;7.70;;;4.57;;
25758;SDS011;13604;52.496;13.456;2023-08-01T04:28:08;8.20;;;4.60;;
25758;SDS011;13604;52.496;13.456;2023-08-01T04:30:33;9.27;;;4.88;;
25758;SDS011;13604;52.496;13.456;2023-08-01T04:32:59;8.32;;;4.30;;
25758;SDS011;13604;52.496;13.456;2023-08-01T04:35:24;8.25;;;4.35;;
25758;SDS011;13604;52.496;13.456;2023-08-01T04:37:49;7.78;;;4.30;;
25758;SDS011;13604;52.496;13.456;2023-08-01T04:40:14;11.48;;;5.15;;
25758;SDS011;13604;52.496;13.456;2023-08-01T04:42:40;6.65;;;4.13;;
25758;SDS011;13604;52.496;13.456;2023-08-01T04:45:05;8.05;;;4.57;;
25758;SDS011;13604;52.496;13.456;2023-08-01T04:47:32;7.30;;;4.10;;
25758;SDS011;13604;52.496;13.456;2023-08-01T04:49:57;7.57;;;4.43;;
25758;SDS011;13604;52.496;13.456;2023-08-01T04:52:22;6.75;;;4.20;;
25758;SDS011;13604;52.496;13.456;2023-08-01T04:54:48;8.98;;;4.80;;
25758;SDS011;13604;52.496;13.456;2023-08-01T04:57:13;6.32;;;4.47;;
25758;SDS011;13604;52.496;13.456;2023-08-01T04:59:38;8.50;;;4.60;;
25758;SDS011;13604;52.496;13.456;2023-08-01T05:02:04;9.10;;;5.00;;
25758;SDS011;13604;52.496;13.456;2023-08-01T05:04:29;7.78;;;3.85;;
25758;SDS011;13604;52.496;13.456;2023-08-01T05:06:54;7.68;;;4.78;;
25758;SDS011;13604;52.496;13.456;2023-08-01T05:09:20;6.45;;;4.13;;
25758;SDS011;13604;52.496;13.456;2023-08-01T05:11:45;6.43;;;4.50;;
25758;SDS011;13604;52.496;13.456;2023-08-01T05:14:10;9.25;;;4.38;;
25758;SDS011;13604;52.496;13.456;2023-08-01T05:16:35;6.25;;;4.25;;
25758;SDS011;13604;52.496;13.456;2023-08-01T05:19:01;10.70;;;4.93;;
25758;SDS011;13604;52.496;13.456;2023-08-01T05:21:26;6.20;;;4.25;;
25758;SDS011;13604;52.496;13.456;2023-08-01T05:23:51;10.95;;;4.78;;
25758;SDS011;13604;52.496;13.456;2023-08-01T05:26:17;8.50;;;3.92;;
25758;SDS011;13604;52.496;13.456;2023-08-01T05:28:42;9.20;;;4.35;;
25758;SDS011;13604;52.496;13.456;2023-08-01T05:31:07;7.63;;;4.40;;
25758;SDS011;13604;52.496;13.456;2023-08-01T05:33:33;5.80;;;3.75;;
25758;SDS011;13604;52.496;13.456;2023-08-01T05:35:58;7.47;;;4.20;;
25758;SDS011;13604;52.496;13.456;2023-08-01T05:38:23;6.45;;;4.00;;
25758;SDS011;13604;52.496;13.456;2023-08-01T05:40:48;8.35;;;4.20;;
25758;SDS011;13604;52.496;13.456;2023-08-01T05:43:14;7.40;;;4.18;;
25758;SDS011;13604;52.496;13.456;2023-08-01T05:45:39;6.95;;;4.50;;
25758;SDS011;13604;52.496;13.456;2023-08-01T05:48:05;9.38;;;4.47;;
25758;SDS011;13604;52.496;13.456;2023-08-01T05:50:30;6.20;;;3.92;;
25758;SDS011;13604;52.496;13.456;2023-08-01T05:52:55;7.97;;;4.28;;
25758;SDS011;13604;52.496;13.456;2023-08-01T05:55:21;8.98;;;4.18;;
25758;SDS011;13604;52.496;13.456;2023-08-01T05:57:46;7.50;;;4.35;;
25758;SDS011;13604;52.496;13.456;2023-08-01T06:00:11;7.45;;;4.30;;
25758;SDS011;13604;52.496;13.456;2023-08-01T06:02:37;8.38;;;4.28;;
25758;SDS011;13604;52.496;13.456;2023-08-01T06:05:02;5.90;;;4.07;;
25758;SDS011;13604;52.496;13.456;2023-08-01T06:07:28;4.88;;;3.67;;
25758;SDS011;13604;52.496;13.456;2023-08-01T06:09:54;6.55;;;3.90;;
25758;SDS011;13604;52.496;13.456;2023-08-01T06:12:19;5.95;;;3.50;;
25758;SDS011;13604;52.496;13.456;2023-08-01T06:14:44;6.15;;;3.78;;
25758;SDS011;13604;52.496;13.456;2023-08-01T06:17:10;6.38;;;3.80;;
25758;SDS011;13604;52.496;13.456;2023-08-01T06:19:35;7.93;;;3.65;;
25758;SDS011;13604;52.496;13.456;2023-08-01T06:22:00;6.10;;;3.80;;
25758;SDS011;13604;52.496;13.456;2023-08-01T06:24:26;7.15;;;3.85;;
25758;SDS011;13604;52.496;13.456;2023-08-01T06:26:51;6.25;;;3.13;;
25758;SDS011;13604;52.496;13.456;2023-08-01T06:29:16;6.40;;;3.35;;
25758;SDS011;13604;52.496;13.456;2023-08-01T06:31:42;4.47;;;3.70;;
25758;SDS011;13604;52.496;13.456;2023-08-01T06:34:07;7.00;;;3.83;;
25758;SDS011;13604;52.496;13.456;2023-08-01T06:36:32;6.90;;;3.90;;
25758;SDS011;13604;52.496;13.456;2023-08-01T06:38:57;6.20;;;3.75;;
25758;SDS011;13604;52.496;13.456;2023-08-01T06:41:23;5.28;;;3.80;;
25758;SDS011;13604;52.496;13.456;2023-08-01T06:43:48;5.93;;;4.15;;
25758;SDS011;13604;52.496;13.456;2023-08-01T06:46:13;6.40;;;3.83;;
25758;SDS011;13604;52.496;13.456;2023-08-01T06:48:39;8.77;;;3.90;;
25758;SDS011;13604;52.496;13.456;2023-08-01T06:51:04;5.95;;;3.95;;
25758;SDS011;13604;52.496;13.456;2023-08-01T06:53:29;6.20;;;3.55;;
25758;SDS011;13604;52.496;13.456;2023-08-01T06:55:55;7.35;;;4.00;;
25758;SDS011;13604;52.496;13.456;2023-08-01T06:58:20;4.65;;;3.75;;
25758;SDS011;13604;52.496;13.456;2023-08-01T07:00:45;8.13;;;3.50;;
25758;SDS011;13604;52.496;13.456;2023-08-01T07:03:10;5.35;;;3.40;;
25758;SDS011;13604;52.496;13.456;2023-08-01T07:05:36;5.38;;;3.78;;
25758;SDS011;13604;52.496;13.456;2023-08-01T07:08:02;3.83;;;3.25;;
25758;SDS011;13604;52.496;13.456;2023-08-01T07:10:27;6.22;;;3.90;;
25758;SDS011;13604;52.496;13.456;2023-08-01T07:12:52;6.68;;;3.80;;
25758;SDS011;13604;52.496;13.456;2023-08-01T07:15:18;3.92;;;3.20;;
25758;SDS011;13604;52.496;13.456;2023-08-01T07:17:43;4.32;;;3.05;;
25758;SDS011;13604;52.496;13.456;2023-08-01T07:20:08;6.72;;;3.60;;
25758;SDS011;13604;52.496;13.456;2023-08-01T07:22:34;8.32;;;3.53;;
25758;SDS011;13604;52.496;13.456;2023-08-01T07:24:59;5.60;;;3.80;;
25758;SDS011;13604;52.496;13.456;2023-08-01T07:27:25;8.15;;;3.00;;
25758;SDS011;13604;52.496;13.456;2023-08-01T07:29:50;4.10;;;3.15;;
25758;SDS011;13604;52.496;13.456;2023-08-01T07:32:15;5.07;;;3.13;;
25758;SDS011;13604;52.496;13.456;2023-08-01T07:34:40;5.72;;;3.10;;
25758;SDS011;13604;52.496;13.456;2023-08-01T07:37:06;5.85;;;2.95;;
25758;SDS011;13604;52.496;13.456;2023-08-01T07:39:31;3.85;;;2.55;;
25758;SDS011;13604;52.496;13.456;2023-08-01T07:41:56;5.70;;;3.03;;
25758;SDS011;13604;52.496;13.456;2023-08-01T07:44:22;7.63;;;3.67;;
25758;SDS011;13604;52.496;13.456;2023-08-01T07:46:47;4.47;;;3.03;;
25758;SDS011;13604;52.496;13.456;2023-08-01T07:49:13;5.35;;;3.08;;
25758;SDS011;13604;52.496;13.456;2023-08-01T07:51:38;4.72;;;3.03;;
25758;SDS011;13604;52.496;13.456;2023-08-01T07:54:03;3.85;;;2.47;;
25758;SDS011;13604;52.496;13.456;2023-08-01T07:56:28;5.47;;;3.25;;
25758;SDS011;13604;52.496;13.456;2023-08-01T07:58:54;4.85;;;2.90;;
25758;SDS011;13604;52.496;13.456;2023-08-01T08:01:19;6.65;;;2.53;;
25758;SDS011;13604;52.496;13.456;2023-08-01T08:03:44;6.70;;;2.80;;
25758;SDS011;13604;52.496;13.456;2023-08-01T08:06:10;5.68;;;2.65;;
25758;SDS011;13604;52.496;13.456;2023-08-01T08:08:35;4.88;;;2.50;;
25758;SDS011;13604;52.496;13.456;2023-08-01T08:11:01;3.65;;;2.30;;
25758;SDS011;13604;52.496;13.456;2023-08-01T08:13:27;3.38;;;2.30;;
25758;SDS011;13604;52.496;13.456;2023-08-01T08:15:55;4.68;;;2.63;;
25758;SDS011;13604;52.496;13.456;2023-08-01T08:18:21;4.53;;;2.20;;
25758;SDS011;13604;52.496;13.456;2023-08-01T08:20:47;3.42;;;2.72;;
25758;SDS011;13604;52.496;13.456;2023-08-01T08:23:12;2.95;;;2.00;;
25758;SDS011;13604;52.496;13.456;2023-08-01T08:25:39;4.97;;;2.40;;
25758;SDS011;13604;52.496;13.456;2023-08-01T08:28:04;2.45;;;2.22;;
25758;SDS011;13604;52.496;13.456;2023-08-01T08:30:30;2.13;;;1.80;;
25758;SDS011;13604;52.496;13.456;2023-08-01T08:32:56;3.10;;;1.92;;
25758;SDS011;13604;52.496;13.456;2023-08-01T08:35:22;4.15;;;2.25;;
25758;SDS011;13604;52.496;13.456;2023-08-01T08:37:47;5.32;;;2.13;;
25758;SDS011;13604;52.496;13.456;2023-08-01T08:40:13;7.85;;;1.85;;
25758;SDS011;13604;52.496;13.456;2023-08-01T08:42:39;1.60;;;1.48;;
25758;SDS011;13604;52.496;13.456;2023-08-01T08:45:04;2.38;;;1.83;;
25758;SDS011;13604;52.496;13.456;2023-08-01T08:47:31;3.15;;;2.00;;
25758;SDS011;13604;52.496;13.456;2023-08-01T08:50:06;4.03;;;1.77;;
25758;SDS011;13604;52.496;13.456;2023-08-01T08:52:33;3.88;;;1.80;;
25758;SDS011;13604;52.496;13.456;2023-08-01T08:54:58;2.80;;;2.10;;
25758;SDS011;13604;52.496;13.456;2023-08-01T08:57:23;2.65;;;1.92;;
25758;SDS011;13604;52.496;13.456;2023-08-01T08:59:49;5.32;;;2.25;;
25758;SDS011;13604;52.496;13.456;2023-08-01T09:02:15;1.83;;;1.73;;
25758;SDS011;13604;52.496;13.456;2023-08-01T09:04:41;2.05;;;1.85;;
25758;SDS011;13604;52.496;13.456;2023-08-01T09:07:07;2.75;;;1.88;;
25758;SDS011;13604;52.496;13.456;2023-08-01T09:09:35;3.63;;;1.73;;
25758;SDS011;13604;52.496;13.456;2023-08-01T09:12:01;4.10;;;1.70;;
25758;SDS011;13604;52.496;13.456;2023-08-01T09:14:27;2.17;;;1.70;;
25758;SDS011;13604;52.496;13.456;2023-08-01T09:16:52;1.67;;;1.40;;
25758;SDS011;13604;52.496;13.456;2023-08-01T09:19:18;2.20;;;1.30;;
25758;SDS011;13604;52.496;13.456;2023-08-01T09:21:44;1.90;;;1.10;;
25758;SDS011;13604;52.496;13.456;2023-08-01T09:24:13;4.20;;;1.27;;
25758;SDS011;13604;52.496;13.456;2023-08-01T09:26:40;2.20;;;1.20;;
25758;SDS011;13604;52.496;13.456;2023-08-01T09:29:06;1.25;;;1.05;;
25758;SDS011;13604;52.496;13.456;2023-08-01T09:31:33;1.23;;;0.90;;
25758;SDS011;13604;52.496;13.456;2023-08-01T09:34:00;4.35;;;1.00;;
25758;SDS011;13604;52.496;13.456;2023-08-01T09:36:31;3.15;;;1.20;;
25758;SDS011;13604;52.496;13.456;2023-08-01T09:39:03;1.20;;;1.10;;
25758;SDS011;13604;52.496;13.456;2023-08-01T09:41:29;2.42;;;1.00;;
25758;SDS011;13604;52.496;13.456;2023-08-01T09:43:55;1.38;;;1.00;;
25758;SDS011;13604;52.496;13.456;2023-08-01T09:46:21;1.75;;;1.15;;
25758;SDS011;13604;52.496;13.456;2023-08-01T09:48:47;2.15;;;0.95;;
25758;SDS011;13604;52.496;13.456;2023-08-01T09:51:13;1.25;;;0.80;;
25758;SDS011;13604;52.496;13.456;2023-08-01T09:53:49;0.65;;;0.65;;
25758;SDS011;13604;52.496;13.456;2023-08-01T09:56:21;0.93;;;0.88;;
25758;SDS011;13604;52.496;13.456;2023-08-01T09:58:47;2.45;;;0.77;;
25758;SDS011;13604;52.496;13.456;2023-08-01T10:01:14;1.13;;;0.80;;
25758;SDS011;13604;52.496;13.456;2023-08-01T10:03:41;1.67;;;0.80;;
25758;SDS011;13604;52.496;13.456;2023-08-01T10:06:12;0.85;;;0.70;;
25758;SDS011;13604;52.496;13.456;2023-08-01T10:08:41;1.40;;;0.80;;
25758;SDS011;13604;52.496;13.456;2023-08-01T10:11:07;2.63;;;1.00;;
25758;SDS011;13604;52.496;13.456;2023-08-01T10:13:33;2.83;;;0.90;;
25758;SDS011;13604;52.496;13.456;2023-08-01T10:15:58;1.35;;;1.00;;
25758;SDS011;13604;52.496;13.456;2023-08-01T10:18:24;2.53;;;0.90;;
25758;SDS011;13604;52.496;13.456;2023-08-01T10:20:53;4.28;;;1.00;;
25758;SDS011;13604;52.496;13.456;2023-08-01T10:23:18;3.47;;;1.10;;
25758;SDS011;13604;52.496;13.456;2023-08-01T10:25:44;1.67;;;0.90;;
25758;SDS011;13604;52.496;13.456;2023-08-01T10:28:10;2.83;;;0.90;;
25758;SDS011;13604;52.496;13.456;2023-08-01T10:30:35;2.08;;;1.30;;
25758;SDS011;13604;52.496;13.456;2023-08-01T10:33:00;0.77;;;0.77;;
25758;SDS011;13604;52.496;13.456;2023-08-01T10:38:05;0.80;;;0.80;;
25758;SDS011;13604;52.496;13.456;2023-08-01T10:40:35;2.67;;;1.00;;
25758;SDS011;13604;52.496;13.456;2023-08-01T10:43:05;1.00;;;0.90;;
25758;SDS011;13604;52.496;13.456;2023-08-01T10:45:30;1.40;;;1.30;;
25758;SDS011;13604;52.496;13.456;2023-08-01T10:48:06;2.13;;;1.00;;
25758;SDS011;13604;52.496;13.456;2023-08-01T10:50:32;0.73;;;0.70;;
25758;SDS011;13604;52.496;13.456;2023-08-01T10:53:04;1.38;;;0.98;;
25758;SDS011;13604;52.496;13.456;2023-08-01T10:55:43;5.15;;;1.20;;
25758;SDS011;13604;52.496;13.456;2023-08-01T10:58:11;1.17;;;1.08;;
25758;SDS011;13604;52.496;13.456;2023-08-01T11:00:36;1.30;;;1.05;;
25758;SDS011;13604;52.496;13.456;2023-08-01T11:03:03;5.55;;;1.42;;
25758;SDS011;13604;52.496;13.456;2023-08-01T11:05:29;2.30;;;1.45;;
25758;SDS011;13604;52.496;13.456;2023-08-01T11:07:58;2.63;;;1.10;;
25758;SDS011;13604;52.496;13.456;2023-08-01T11:10:25;2.45;;;1.33;;
25758;SDS011;13604;52.496;13.456;2023-08-01T11:12:52;3.95;;;1.33;;
25758;SDS011;13604;52.496;13.456;2023-08-01T11:15:18;1.30;;;1.20;;
25758;SDS011;13604;52.496;13.456;2023-08-01T11:17:54;1.35;;;1.25;;
25758;SDS011;13604;52.496;13.456;2023-08-01T11:20:21;1.35;;;1.25;;
25758;SDS011;13604;52.496;13.456;2023-08-01T11:22:57;3.50;;;1.60;;
25758;SDS011;13604;52.496;13.456;2023-08-01T11:25:33;3.25;;;1.80;;
25758;SDS011;13604;52.496;13.456;2023-08-01T11:28:07;2.22;;;1.60;;
25758;SDS011;13604;52.496;13.456;2023-08-01T11:30:34;3.17;;;1.63;;
25758;SDS011;13604;52.496;13.456;2023-08-01T11:33:00;2.80;;;2.10;;
25758;SDS011;13604;52.496;13.456;2023-08-01T11:35:26;4.40;;;2.38;;
25758;SDS011;13604;52.496;13.456;2023-08-01T11:37:52;2.67;;;2.03;;
25758;SDS011;13604;52.496;13.456;2023-08-01T11:40:17;3.45;;;2.63;;
25758;SDS011;13604;52.496;13.456;2023-08-01T11:42:47;3.85;;;2.45;;
25758;SDS011;13604;52.496;13.456;2023-08-01T11:45:15;4.97;;;2.60;;
25758;SDS011;13604;52.496;13.456;2023-08-01T11:47:44;4.57;;;2.67;;
25758;SDS011;13604;52.496;13.456;2023-08-01T11:50:11;4.43;;;2.63;;
25758;SDS011;13604;52.496;13.456;2023-08-01T11:52:36;5.05;;;2.65;;
25758;SDS011;13604;52.496;13.456;2023-08-01T11:55:02;4.13;;;2.63;;
25758;SDS011;13604;52.496;13.456;2023-08-01T11:57:27;3.35;;;2.45;;
25758;SDS011;13604;52.496;13.456;2023-08-01T11:59:53;8.32;;;2.53;;
25758;SDS011;13604;52.496;13.456;2023-08-01T12:02:20;3.72;;;2.30;;
25758;SDS011;13604;52.496;13.456;2023-08-01T12:04:46;3.17;;;2.70;;
25758;SDS011;13604;52.496;13.456;2023-08-01T12:07:12;5.85;;;3.20;;
25758;SDS011;13604;52.496;13.456;2023-08-01T12:09:41;5.25;;;3.55;;
25758;SDS011;13604;52.496;13.456;2023-08-01T12:12:06;3.35;;;2.78;;
25758;SDS011;13604;52.496;13.456;2023-08-01T12:14:33;4.95;;;2.70;;
25758;SDS011;13604;52.496;13.456;2023-08-01T12:16:58;4.18;;;2.85;;
25758;SDS011;13604;52.496;13.456;2023-08-01T12:19:24;4.45;;;2.83;;
25758;SDS011;13604;52.496;13.456;2023-08-01T12:21:49;5.20;;;3.15;;
25758;SDS011;13604;52.496;13.456;2023-08-01T12:24:14;4.28;;;3.05;;
25758;SDS011;13604;52.496;13.456;2023-08-01T12:26:40;5.70;;;3.10;;
25758;SDS011;13604;52.496;13.456;2023-08-01T12:29:05;7.72;;;3.42;;
25758;SDS011;13604;52.496;13.456;2023-08-01T12:31:30;6.38;;;3.22;;
25758;SDS011;13604;52.496;13.456;2023-08-01T12:33:56;4.10;;;3.00;;
25758;SDS011;13604;52.496;13.456;2023-08-01T12:36:21;4.45;;;2.78;;
25758;SDS011;13604;52.496;13.456;2023-08-01T12:38:47;7.78;;;2.85;;
25758;SDS011;13604;52.496;13.456;2023-08-01T12:41:12;5.68;;;2.80;;
25758;SDS011;13604;52.496;13.456;2023-08-01T12:43:37;2.65;;;2.22;;
25758;SDS011;13604;52.496;13.456;2023-08-01T12:46:02;4.83;;;2.60;;
25758;SDS011;13604;52.496;13.456;2023-08-01T12:48:28;2.63;;;2.03;;
25758;SDS011;13604;52.496;13.456;2023-08-01T12:50:54;4.43;;;2.72;;
25758;SDS011;13604;52.496;13.456;2023-08-01T12:53:20;7.35;;;3.05;;
25758;SDS011;13604;52.496;13.456;2023-08-01T12:55:48;3.28;;;2.55;;
25758;SDS011;13604;52.496;13.456;2023-08-01T12:58:15;6.35;;;2.80;;
25758;SDS011;13604;52.496;13.456;2023-08-01T13:02:33;5.63;;;3.00;;
25758;SDS011;13604;52.496;13.456;2023-08-01T13:04:58;6.75;;;3.53;;
25758;SDS011;13604;52.496;13.456;2023-08-01T13:07:23;8.02;;;3.25;;
25758;SDS011;13604;52.496;13.456;2023-08-01T13:09:49;4.32;;;3.13;;
25758;SDS011;13604;52.496;13.456;2023-08-01T13:12:14;4.57;;;3.10;;
25758;SDS011;13604;52.496;13.456;2023-08-01T13:14:39;4.35;;;3.15;;
25758;SDS011;13604;52.496;13.456;2023-08-01T13:17:04;6.90;;;3.50;;
25758;SDS011;13604;52.496;13.456;2023-08-01T13:19:30;4.55;;;2.70;;
25758;SDS011;13604;52.496;13.456;2023-08-01T13:21:55;5.88;;;2.85;;
25758;SDS011;13604;52.496;13.456;2023-08-01T13:24:21;4.97;;;2.60;;
25758;SDS011;13604;52.496;13.456;2023-08-01T13:26:46;5.93;;;3.15;;
25758;SDS011;13604;52.496;13.456;2023-08-01T13:29:11;4.57;;;3.00;;
25758;SDS011;13604;52.496;13.456;2023-08-01T13:31:37;3.92;;;2.80;;
25758;SDS011;13604;52.496;13.456;2023-08-01T13:34:02;6.78;;;2.80;;
25758;SDS011;13604;52.496;13.456;2023-08-01T13:36:27;5.20;;;2.78;;
25758;SDS011;13604;52.496;13.456;2023-08-01T13:38:52;14.32;;;2.47;;
25758;SDS011;13604;52.496;13.456;2023-08-01T13:41:18;6.18;;;2.40;;
25758;SDS011;13604;52.496;13.456;2023-08-01T13:43:43;3.78;;;2.17;;
25758;SDS011;13604;52.496;13.456;2023-08-01T13:46:15;3.63;;;2.42;;
25758;SDS011;13604;52.496;13.456;2023-08-01T13:48:42;6.30;;;2.85;;
25758;SDS011;13604;52.496;13.456;2023-08-01T13:51:10;4.75;;;2.75;;
25758;SDS011;13604;52.496;13.456;2023-08-01T13:53:36;3.92;;;2.75;;
25758;SDS011;13604;52.496;13.456;2023-08-01T13:56:12;3.40;;;2.50;;
25758;SDS011;13604;52.496;13.456;2023-08-01T13:58:38;4.05;;;2.58;;
25758;SDS011;13604;52.496;13.456;2023-08-01T14:01:04;4.13;;;2.42;;
25758;SDS011;13604;52.496;13.456;2023-08-01T14:03:32;4.63;;;2.35;;
25758;SDS011;13604;52.496;13.456;2023-08-01T14:06:04;4.22;;;2.42;;
25758;SDS011;13604;52.496;13.456;2023-08-01T14:08:30;4.07;;;2.30;;
25758;SDS011;13604;52.496;13.456;2023-08-01T14:10:56;5.18;;;2.67;;
25758;SDS011;13604;52.496;13.456;2023-08-01T14:13:21;3.60;;;2.20;;
25758;SDS011;13604;52.496;13.456;2023-08-01T14:15:46;4.53;;;2.30;;
25758;SDS011;13604;52.496;13.456;2023-08-01T14:18:12;3.22;;;2.28;;
25758;SDS011;13604;52.496;13.456;2023-08-01T14:20:37;7.03;;;2.72;;
25758;SDS011;13604;52.496;13.456;2023-08-01T14:23:02;4.38;;;2.45;;
25758;SDS011;13604;52.496;13.456;2023-08-01T14:25:28;4.85;;;2.47;;
25758;SDS011;13604;52.496;13.456;2023-08-01T14:27:53;4.77;;;2.63;;